sensor_id;sensor_type;location;lat;lon;timestamp;pressure;altitude;pressure_sealevel;temperature;humidity
18137;BME280;9194;42.632;23.298;2024-02-14T00:04:38;92307.06;;;3.92;100.00
18137;BME280;9194;42.632;23.298;2024-02-14T00:09:40;92306.16;;;4.00;100.00
18137;BME280;9194;42.632;23.298;2024-02-14T00:14:41;92310.50;;;3.99;100.00
18137;BME280;9194;42.632;23.298;2024-02-14T00:19:43;92315.47;;;4.01;100.00
18137;BME280;9194;42.632;23.298;2024-02-14T00:24:45;92326.81;;;4.13;100.00
18137;BME280;9194;42.632;23.298;2024-02-14T00:29:46;92323.38;;;3.99;100.00
18137;BME280;9194;42.632;23.298;2024-02-14T00:34:47;92326.75;;;4.00;100.00
18137;BME280;9194;42.632;23.298;2024-02-14T00:39:50;92327.59;;;4.07;100.00
18137;BME280;9194;42.632;23.298;2024-02-14T00:44:52;92326.56;;;4.08;100.00
18137;BME280;9194;42.632;23.298;2024-02-14T00:49:54;92321.06;;;4.11;100.00
18137;BME280;9194;42.632;23.298;2024-02-14T00:54:55;92320.09;;;4.12;100.00
18137;BME280;9194;42.632;23.298;2024-02-14T00:59:56;92323.69;;;4.18;100.00
18137;BME280;9194;42.632;23.298;2024-02-14T01:04:58;92322.09;;;4.17;100.00
18137;BME280;9194;42.632;23.298;2024-02-14T01:09:59;92329.94;;;4.08;100.00
18137;BME280;9194;42.632;23.298;2024-02-14T01:15:00;92326.22;;;4.11;100.00
18137;BME280;9194;42.632;23.298;2024-02-14T01:20:02;92328.38;;;4.07;100.00
18137;BME280;9194;42.632;23.298;2024-02-14T01:25:05;92330.75;;;4.09;100.00
18137;BME280;9194;42.632;23.298;2024-02-14T01:30:07;92328.78;;;4.11;100.00
18137;BME280;9194;42.632;23.298;2024-02-14T01:35:09;92324.84;;;4.15;100.00
18137;BME280;9194;42.632;23.298;2024-02-14T01:40:11;92313.94;;;4.13;100.00
18137;BME280;9194;42.632;23.298;2024-02-14T01:45:26;92316.53;;;4.13;100.00
18137;BME280;9194;42.632;23.298;2024-02-14T01:50:35;92318.94;;;4.21;100.00
18137;BME280;9194;42.632;23.298;2024-02-14T01:55:37;92325.41;;;4.10;100.00
18137;BME280;9194;42.632;23.298;2024-02-14T02:00:38;92305.06;;;4.22;100.00
18137;BME280;9194;42.632;23.298;2024-02-14T02:05:45;92322.69;;;4.19;100.00
18137;BME280;9194;42.632;23.298;2024-02-14T02:10:47;92318.09;;;4.14;100.00
18137;BME280;9194;42.632;23.298;2024-02-14T02:16:08;92320.88;;;4.12;100.00
18137;BME280;9194;42.632;23.298;2024-02-14T02:21:29;92317.88;;;4.09;100.00
18137;BME280;9194;42.632;23.298;2024-02-14T02:26:31;92323.41;;;4.06;100.00
18137;BME280;9194;42.632;23.298;2024-02-14T02:31:52;92333.53;;;4.14;100.00
18137;BME280;9194;42.632;23.298;2024-02-14T02:36:53;92335.53;;;4.12;100.00
18137;BME280;9194;42.632;23.298;2024-02-14T02:42:13;92327.59;;;4.13;100.00
18137;BME280;9194;42.632;23.298;2024-02-14T02:47:35;92329.94;;;4.08;100.00
18137;BME280;9194;42.632;23.298;2024-02-14T02:52:56;92338.88;;;4.06;100.00
18137;BME280;9194;42.632;23.298;2024-02-14T02:58:18;92356.50;;;4.09;100.00
18137;BME280;9194;42.632;23.298;2024-02-14T03:03:19;92338.91;;;4.12;100.00
18137;BME280;9194;42.632;23.298;2024-02-14T03:08:39;92359.69;;;4.11;100.00
18137;BME280;9194;42.632;23.298;2024-02-14T03:14:00;92364.63;;;4.06;100.00
18137;BME280;9194;42.632;23.298;2024-02-14T03:19:21;92370.78;;;4.11;100.00
18137;BME280;9194;42.632;23.298;2024-02-14T03:24:24;92385.84;;;4.14;100.00
18137;BME280;9194;42.632;23.298;2024-02-14T03:29:28;92381.50;;;4.15;100.00
18137;BME280;9194;42.632;23.298;2024-02-14T03:34:29;92385.44;;;4.11;100.00
18137;BME280;9194;42.632;23.298;2024-02-14T03:39:32;92394.38;;;4.15;100.00
18137;BME280;9194;42.632;23.298;2024-02-14T03:44:33;92398.19;;;4.19;100.00
18137;BME280;9194;42.632;23.298;2024-02-14T03:49:35;92408.69;;;4.18;100.00
18137;BME280;9194;42.632;23.298;2024-02-14T03:54:36;92392.00;;;4.13;100.00
18137;BME280;9194;42.632;23.298;2024-02-14T03:59:38;92401.69;;;4.11;100.00
18137;BME280;9194;42.632;23.298;2024-02-14T04:04:42;92416.72;;;4.08;100.00
18137;BME280;9194;42.632;23.298;2024-02-14T04:09:43;92428.84;;;4.14;100.00
18137;BME280;9194;42.632;23.298;2024-02-14T04:14:44;92419.91;;;4.10;100.00
18137;BME280;9194;42.632;23.298;2024-02-14T04:19:45;92431.81;;;4.11;100.00
18137;BME280;9194;42.632;23.298;2024-02-14T04:24:47;92426.00;;;4.02;100.00
18137;BME280;9194;42.632;23.298;2024-02-14T04:29:48;92434.16;;;4.06;100.00
18137;BME280;9194;42.632;23.298;2024-02-14T04:34:49;92439.13;;;4.07;100.00
18137;BME280;9194;42.632;23.298;2024-02-14T04:39:50;92441.66;;;4.01;100.00
18137;BME280;9194;42.632;23.298;2024-02-14T04:44:51;92434.50;;;4.03;100.00
18137;BME280;9194;42.632;23.298;2024-02-14T04:49:53;92446.59;;;4.02;100.00
18137;BME280;9194;42.632;23.298;2024-02-14T04:54:54;92450.41;;;4.06;100.00
18137;BME280;9194;42.632;23.298;2024-02-14T04:59:55;92453.97;;;4.05;100.00
18137;BME280;9194;42.632;23.298;2024-02-14T05:04:56;92455.72;;;4.05;100.00
18137;BME280;9194;42.632;23.298;2024-02-14T05:09:57;92470.16;;;3.99;100.00
18137;BME280;9194;42.632;23.298;2024-02-14T05:14:59;92488.59;;;4.03;100.00
18137;BME280;9194;42.632;23.298;2024-02-14T05:20:00;92486.41;;;4.00;100.00
18137;BME280;9194;42.632;23.298;2024-02-14T05:25:01;92484.81;;;3.99;100.00
18137;BME280;9194;42.632;23.298;2024-02-14T05:30:04;92497.91;;;4.04;100.00
18137;BME280;9194;42.632;23.298;2024-02-14T05:35:23;92516.09;;;3.96;100.00
18137;BME280;9194;42.632;23.298;2024-02-14T05:40:24;92524.28;;;3.85;100.00
18137;BME280;9194;42.632;23.298;2024-02-14T05:45:26;92521.44;;;3.80;100.00
18137;BME280;9194;42.632;23.298;2024-02-14T05:50:29;92536.63;;;3.89;100.00
18137;BME280;9194;42.632;23.298;2024-02-14T05:55:30;92533.41;;;3.87;100.00
18137;BME280;9194;42.632;23.298;2024-02-14T06:00:32;92538.75;;;3.86;100.00
18137;BME280;9194;42.632;23.298;2024-02-14T06:05:33;92548.31;;;3.92;100.00
18137;BME280;9194;42.632;23.298;2024-02-14T06:10:34;92554.81;;;3.88;100.00
18137;BME280;9194;42.632;23.298;2024-02-14T06:15:36;92567.94;;;3.93;100.00
18137;BME280;9194;42.632;23.298;2024-02-14T06:20:37;92569.03;;;3.84;100.00
18137;BME280;9194;42.632;23.298;2024-02-14T06:25:40;92573.38;;;3.83;100.00
18137;BME280;9194;42.632;23.298;2024-02-14T06:30:43;92577.00;;;3.89;100.00
18137;BME280;9194;42.632;23.298;2024-02-14T06:35:44;92575.56;;;4.01;100.00
18137;BME280;9194;42.632;23.298;2024-02-14T06:40:45;92579.97;;;4.07;100.00
18137;BME280;9194;42.632;23.298;2024-02-14T06:45:47;92593.84;;;4.06;100.00
18137;BME280;9194;42.632;23.298;2024-02-14T06:50:57;92591.09;;;4.07;100.00
18137;BME280;9194;42.632;23.298;2024-02-14T06:55:59;92588.03;;;4.19;100.00
18137;BME280;9194;42.632;23.298;2024-02-14T07:01:00;92591.63;;;4.24;100.00
18137;BME280;9194;42.632;23.298;2024-02-14T07:06:01;92599.84;;;4.13;100.00
18137;BME280;9194;42.632;23.298;2024-02-14T07:11:03;92614.56;;;4.19;100.00
18137;BME280;9194;42.632;23.298;2024-02-14T07:16:05;92611.63;;;4.43;100.00
18137;BME280;9194;42.632;23.298;2024-02-14T07:21:06;92623.69;;;4.43;100.00
18137;BME280;9194;42.632;23.298;2024-02-14T07:26:07;92623.34;;;4.46;100.00
18137;BME280;9194;42.632;23.298;2024-02-14T07:31:09;92625.13;;;4.45;100.00
18137;BME280;9194;42.632;23.298;2024-02-14T07:36:10;92623.03;;;4.34;100.00
18137;BME280;9194;42.632;23.298;2024-02-14T07:41:12;92628.09;;;4.42;100.00
18137;BME280;9194;42.632;23.298;2024-02-14T07:46:22;92634.09;;;4.28;100.00
18137;BME280;9194;42.632;23.298;2024-02-14T07:51:24;92637.63;;;4.27;100.00
18137;BME280;9194;42.632;23.298;2024-02-14T07:56:26;92641.41;;;4.10;100.00
18137;BME280;9194;42.632;23.298;2024-02-14T08:01:28;92647.47;;;4.02;100.00
18137;BME280;9194;42.632;23.298;2024-02-14T08:06:29;92643.16;;;3.73;100.00
18137;BME280;9194;42.632;23.298;2024-02-14T08:11:30;92649.56;;;3.78;100.00
18137;BME280;9194;42.632;23.298;2024-02-14T08:16:31;92655.69;;;3.62;100.00
18137;BME280;9194;42.632;23.298;2024-02-14T08:21:33;92665.19;;;3.61;100.00
18137;BME280;9194;42.632;23.298;2024-02-14T08:26:34;92664.22;;;3.62;100.00
18137;BME280;9194;42.632;23.298;2024-02-14T08:31:36;92670.78;;;3.65;100.00
18137;BME280;9194;42.632;23.298;2024-02-14T08:36:37;92674.69;;;3.76;100.00
18137;BME280;9194;42.632;23.298;2024-02-14T08:41:43;92677.34;;;3.53;100.00
18137;BME280;9194;42.632;23.298;2024-02-14T08:46:45;92684.09;;;3.54;100.00
18137;BME280;9194;42.632;23.298;2024-02-14T08:51:49;92685.00;;;3.61;100.00
18137;BME280;9194;42.632;23.298;2024-02-14T08:56:51;92691.63;;;3.55;100.00
18137;BME280;9194;42.632;23.298;2024-02-14T09:01:56;92695.00;;;3.70;100.00
18137;BME280;9194;42.632;23.298;2024-02-14T09:06:57;92701.31;;;3.83;100.00
18137;BME280;9194;42.632;23.298;2024-02-14T09:11:59;92695.53;;;3.81;100.00
18137;BME280;9194;42.632;23.298;2024-02-14T09:17:03;92704.50;;;3.99;100.00
18137;BME280;9194;42.632;23.298;2024-02-14T09:22:04;92710.31;;;4.08;100.00
18137;BME280;9194;42.632;23.298;2024-02-14T09:27:07;92702.34;;;4.03;100.00
18137;BME280;9194;42.632;23.298;2024-02-14T09:32:08;92707.41;;;4.11;100.00
18137;BME280;9194;42.632;23.298;2024-02-14T09:37:10;92707.59;;;4.09;100.00
18137;BME280;9194;42.632;23.298;2024-02-14T09:42:15;92709.09;;;4.04;100.00
18137;BME280;9194;42.632;23.298;2024-02-14T09:47:17;92724.75;;;3.88;100.00
18137;BME280;9194;42.632;23.298;2024-02-14T09:52:20;92713.38;;;3.82;100.00
18137;BME280;9194;42.632;23.298;2024-02-14T09:57:23;92708.41;;;3.81;100.00
18137;BME280;9194;42.632;23.298;2024-02-14T10:02:27;92699.72;;;3.82;100.00
18137;BME280;9194;42.632;23.298;2024-02-14T10:07:28;92701.19;;;4.05;100.00
18137;BME280;9194;42.632;23.298;2024-02-14T10:12:29;92685.19;;;4.10;100.00
18137;BME280;9194;42.632;23.298;2024-02-14T10:17:33;92689.63;;;4.52;100.00
18137;BME280;9194;42.632;23.298;2024-02-14T10:22:35;92704.25;;;4.87;100.00
18137;BME280;9194;42.632;23.298;2024-02-14T10:27:38;92698.41;;;5.00;100.00
18137;BME280;9194;42.632;23.298;2024-02-14T10:32:40;92704.44;;;4.86;100.00
18137;BME280;9194;42.632;23.298;2024-02-14T10:37:41;92701.53;;;4.74;100.00
18137;BME280;9194;42.632;23.298;2024-02-14T10:42:43;92694.75;;;4.88;100.00
18137;BME280;9194;42.632;23.298;2024-02-14T10:47:45;92690.31;;;4.82;100.00
18137;BME280;9194;42.632;23.298;2024-02-14T10:52:53;92709.69;;;4.57;100.00
18137;BME280;9194;42.632;23.298;2024-02-14T10:57:58;92696.91;;;4.48;100.00
18137;BME280;9194;42.632;23.298;2024-02-14T11:03:00;92713.22;;;4.34;100.00
18137;BME280;9194;42.632;23.298;2024-02-14T11:08:09;92700.66;;;4.25;100.00
18137;BME280;9194;42.632;23.298;2024-02-14T11:13:13;92709.25;;;4.17;100.00
18137;BME280;9194;42.632;23.298;2024-02-14T11:18:25;92697.13;;;4.32;100.00
18137;BME280;9194;42.632;23.298;2024-02-14T11:23:30;92702.94;;;4.20;100.00
18137;BME280;9194;42.632;23.298;2024-02-14T11:28:31;92704.03;;;4.10;100.00
18137;BME280;9194;42.632;23.298;2024-02-14T11:33:32;92700.06;;;3.93;100.00
18137;BME280;9194;42.632;23.298;2024-02-14T11:38:33;92699.88;;;3.95;100.00
18137;BME280;9194;42.632;23.298;2024-02-14T11:43:35;92712.84;;;3.87;100.00
18137;BME280;9194;42.632;23.298;2024-02-14T11:48:36;92707.59;;;3.80;100.00
18137;BME280;9194;42.632;23.298;2024-02-14T11:53:38;92701.75;;;3.86;100.00
18137;BME280;9194;42.632;23.298;2024-02-14T11:58:40;92715.59;;;3.85;100.00
18137;BME280;9194;42.632;23.298;2024-02-14T12:03:42;92707.63;;;3.95;100.00
18137;BME280;9194;42.632;23.298;2024-02-14T12:08:43;92708.84;;;3.99;100.00
18137;BME280;9194;42.632;23.298;2024-02-14T12:13:49;92704.56;;;4.06;100.00
18137;BME280;9194;42.632;23.298;2024-02-14T12:19:03;92694.88;;;4.08;100.00
18137;BME280;9194;42.632;23.298;2024-02-14T12:24:12;92701.84;;;4.07;100.00
18137;BME280;9194;42.632;23.298;2024-02-14T12:29:16;92695.69;;;4.08;100.00
18137;BME280;9194;42.632;23.298;2024-02-14T12:34:18;92690.50;;;4.23;100.00
18137;BME280;9194;42.632;23.298;2024-02-14T12:39:21;92689.78;;;4.29;100.00
18137;BME280;9194;42.632;23.298;2024-02-14T12:44:22;92692.22;;;4.37;100.00
18137;BME280;9194;42.632;23.298;2024-02-14T12:49:23;92696.88;;;4.42;100.00
18137;BME280;9194;42.632;23.298;2024-02-14T12:54:27;92692.75;;;4.47;100.00
18137;BME280;9194;42.632;23.298;2024-02-14T12:59:28;92701.66;;;4.45;100.00
18137;BME280;9194;42.632;23.298;2024-02-14T13:04:29;92709.94;;;4.40;100.00
18137;BME280;9194;42.632;23.298;2024-02-14T13:09:32;92706.38;;;4.41;100.00
18137;BME280;9194;42.632;23.298;2024-02-14T13:14:33;92711.84;;;4.53;100.00
18137;BME280;9194;42.632;23.298;2024-02-14T13:19:34;92719.50;;;4.46;100.00
18137;BME280;9194;42.632;23.298;2024-02-14T13:24:36;92722.44;;;4.43;100.00
18137;BME280;9194;42.632;23.298;2024-02-14T13:29:37;92721.59;;;4.58;100.00
18137;BME280;9194;42.632;23.298;2024-02-14T13:34:39;92712.09;;;4.58;100.00
18137;BME280;9194;42.632;23.298;2024-02-14T13:39:40;92709.13;;;4.61;100.00
18137;BME280;9194;42.632;23.298;2024-02-14T13:44:41;92716.34;;;4.66;100.00
18137;BME280;9194;42.632;23.298;2024-02-14T13:49:42;92720.00;;;4.57;100.00
18137;BME280;9194;42.632;23.298;2024-02-14T13:54:43;92718.41;;;4.55;100.00
18137;BME280;9194;42.632;23.298;2024-02-14T13:59:46;92717.91;;;4.45;100.00
18137;BME280;9194;42.632;23.298;2024-02-14T14:04:47;92727.38;;;4.60;100.00
18137;BME280;9194;42.632;23.298;2024-02-14T14:09:49;92736.28;;;4.57;100.00
18137;BME280;9194;42.632;23.298;2024-02-14T14:14:50;92726.59;;;4.59;100.00
18137;BME280;9194;42.632;23.298;2024-02-14T14:19:53;92732.34;;;4.61;100.00
18137;BME280;9194;42.632;23.298;2024-02-14T14:24:54;92728.63;;;4.64;100.00
18137;BME280;9194;42.632;23.298;2024-02-14T14:29:55;92737.56;;;4.68;100.00
18137;BME280;9194;42.632;23.298;2024-02-14T14:34:56;92734.41;;;4.66;100.00
18137;BME280;9194;42.632;23.298;2024-02-14T14:39:58;92745.78;;;4.78;100.00
18137;BME280;9194;42.632;23.298;2024-02-14T14:45:01;92745.13;;;4.69;100.00
18137;BME280;9194;42.632;23.298;2024-02-14T14:50:05;92751.44;;;4.67;100.00
18137;BME280;9194;42.632;23.298;2024-02-14T14:55:08;92756.25;;;4.70;100.00
18137;BME280;9194;42.632;23.298;2024-02-14T15:00:10;92752.25;;;4.67;100.00
18137;BME280;9194;42.632;23.298;2024-02-14T15:05:12;92754.66;;;4.69;100.00
18137;BME280;9194;42.632;23.298;2024-02-14T15:10:13;92756.97;;;4.64;100.00
18137;BME280;9194;42.632;23.298;2024-02-14T15:15:14;92758.38;;;4.66;100.00
18137;BME280;9194;42.632;23.298;2024-02-14T15:20:17;92766.31;;;4.65;100.00
18137;BME280;9194;42.632;23.298;2024-02-14T15:25:18;92765.69;;;4.63;100.00
18137;BME280;9194;42.632;23.298;2024-02-14T15:30:24;92769.59;;;4.59;100.00
18137;BME280;9194;42.632;23.298;2024-02-14T15:35:44;92783.38;;;4.66;100.00
18137;BME280;9194;42.632;23.298;2024-02-14T15:40:46;92786.06;;;4.58;100.00
18137;BME280;9194;42.632;23.298;2024-02-14T15:45:48;92794.13;;;4.54;100.00
18137;BME280;9194;42.632;23.298;2024-02-14T15:50:49;92801.34;;;4.59;100.00
18137;BME280;9194;42.632;23.298;2024-02-14T15:55:51;92808.44;;;4.57;99.80
18137;BME280;9194;42.632;23.298;2024-02-14T16:00:52;92808.44;;;4.57;100.00
18137;BME280;9194;42.632;23.298;2024-02-14T16:05:53;92819.56;;;4.58;100.00
18137;BME280;9194;42.632;23.298;2024-02-14T16:10:55;92830.69;;;4.58;100.00
18137;BME280;9194;42.632;23.298;2024-02-14T16:15:57;92841.63;;;4.45;100.00
18137;BME280;9194;42.632;23.298;2024-02-14T16:20:58;92839.03;;;4.45;99.60
18137;BME280;9194;42.632;23.298;2024-02-14T16:26:00;92835.03;;;4.43;100.00
18137;BME280;9194;42.632;23.298;2024-02-14T16:31:01;92847.91;;;4.43;100.00
18137;BME280;9194;42.632;23.298;2024-02-14T16:36:02;92866.16;;;4.41;100.00
18137;BME280;9194;42.632;23.298;2024-02-14T16:41:04;92864.88;;;4.37;100.00
18137;BME280;9194;42.632;23.298;2024-02-14T16:46:05;92876.72;;;4.32;99.63
18137;BME280;9194;42.632;23.298;2024-02-14T16:51:06;92872.91;;;4.28;100.00
18137;BME280;9194;42.632;23.298;2024-02-14T16:56:08;92888.97;;;4.30;98.69
18137;BME280;9194;42.632;23.298;2024-02-14T17:01:10;92877.88;;;4.29;99.32
18137;BME280;9194;42.632;23.298;2024-02-14T17:06:11;92881.75;;;4.25;98.73
18137;BME280;9194;42.632;23.298;2024-02-14T17:11:15;92894.75;;;4.17;96.71
18137;BME280;9194;42.632;23.298;2024-02-14T17:16:17;92895.97;;;4.21;98.88
18137;BME280;9194;42.632;23.298;2024-02-14T17:21:18;92891.91;;;4.12;99.60
18137;BME280;9194;42.632;23.298;2024-02-14T17:26:19;92896.25;;;4.11;99.95
18137;BME280;9194;42.632;23.298;2024-02-14T17:31:22;92893.41;;;4.06;96.54
18137;BME280;9194;42.632;23.298;2024-02-14T17:36:23;92900.69;;;4.18;98.34
18137;BME280;9194;42.632;23.298;2024-02-14T17:41:25;92909.94;;;4.12;97.00
18137;BME280;9194;42.632;23.298;2024-02-14T17:46:27;92894.91;;;4.01;97.76
18137;BME280;9194;42.632;23.298;2024-02-14T17:51:28;92906.97;;;4.00;99.73
18137;BME280;9194;42.632;23.298;2024-02-14T17:56:31;92895.41;;;3.96;100.00
18137;BME280;9194;42.632;23.298;2024-02-14T18:01:32;92897.81;;;3.98;99.55
18137;BME280;9194;42.632;23.298;2024-02-14T18:06:35;92897.25;;;3.88;99.78
18137;BME280;9194;42.632;23.298;2024-02-14T18:11:37;92890.09;;;3.98;97.01
18137;BME280;9194;42.632;23.298;2024-02-14T18:16:38;92893.09;;;3.87;97.64
18137;BME280;9194;42.632;23.298;2024-02-14T18:21:39;92905.50;;;3.83;98.76
18137;BME280;9194;42.632;23.298;2024-02-14T18:26:41;92901.44;;;3.89;98.31
18137;BME280;9194;42.632;23.298;2024-02-14T18:31:42;92893.53;;;3.90;95.71
18137;BME280;9194;42.632;23.298;2024-02-14T18:36:43;92906.22;;;3.77;98.60
18137;BME280;9194;42.632;23.298;2024-02-14T18:41:46;92917.03;;;3.72;98.28
18137;BME280;9194;42.632;23.298;2024-02-14T18:46:47;92918.97;;;3.70;97.42
18137;BME280;9194;42.632;23.298;2024-02-14T18:51:48;92918.50;;;3.67;99.43
18137;BME280;9194;42.632;23.298;2024-02-14T18:56:50;92924.16;;;3.62;100.00
18137;BME280;9194;42.632;23.298;2024-02-14T19:01:51;92918.09;;;3.55;100.00
18137;BME280;9194;42.632;23.298;2024-02-14T19:06:52;92914.06;;;3.61;100.00
18137;BME280;9194;42.632;23.298;2024-02-14T19:11:54;92917.94;;;3.57;100.00
18137;BME280;9194;42.632;23.298;2024-02-14T19:16:56;92929.66;;;3.59;100.00
18137;BME280;9194;42.632;23.298;2024-02-14T19:21:57;92935.78;;;3.58;100.00
18137;BME280;9194;42.632;23.298;2024-02-14T19:26:59;92943.06;;;3.55;100.00
18137;BME280;9194;42.632;23.298;2024-02-14T19:32:00;92941.59;;;3.52;97.90
18137;BME280;9194;42.632;23.298;2024-02-14T19:37:01;92950.03;;;3.38;100.00
18137;BME280;9194;42.632;23.298;2024-02-14T19:42:03;92944.91;;;3.38;100.00
18137;BME280;9194;42.632;23.298;2024-02-14T19:47:05;92938.19;;;3.37;100.00
18137;BME280;9194;42.632;23.298;2024-02-14T19:52:06;92940.34;;;3.25;99.70
18137;BME280;9194;42.632;23.298;2024-02-14T19:57:09;92939.91;;;3.14;100.00
18137;BME280;9194;42.632;23.298;2024-02-14T20:02:10;92947.22;;;3.02;100.00
18137;BME280;9194;42.632;23.298;2024-02-14T20:07:11;92931.28;;;2.99;100.00
18137;BME280;9194;42.632;23.298;2024-02-14T20:12:12;92938.81;;;3.08;100.00
18137;BME280;9194;42.632;23.298;2024-02-14T20:17:14;92937.22;;;3.07;100.00
18137;BME280;9194;42.632;23.298;2024-02-14T20:22:15;92937.50;;;3.12;100.00
18137;BME280;9194;42.632;23.298;2024-02-14T20:27:16;92936.69;;;3.12;100.00
18137;BME280;9194;42.632;23.298;2024-02-14T20:32:17;92936.69;;;3.12;100.00
18137;BME280;9194;42.632;23.298;2024-02-14T20:37:18;92930.47;;;3.06;100.00
18137;BME280;9194;42.632;23.298;2024-02-14T20:42:20;92917.09;;;3.11;100.00
18137;BME280;9194;42.632;23.298;2024-02-14T20:47:21;92937.38;;;3.06;100.00
18137;BME280;9194;42.632;23.298;2024-02-14T20:52:22;92935.19;;;2.95;100.00
18137;BME280;9194;42.632;23.298;2024-02-14T20:57:26;92942.53;;;2.98;100.00
18137;BME280;9194;42.632;23.298;2024-02-14T21:02:27;92941.28;;;2.94;100.00
18137;BME280;9194;42.632;23.298;2024-02-14T21:07:28;92934.50;;;3.01;100.00
18137;BME280;9194;42.632;23.298;2024-02-14T21:12:29;92935.16;;;3.03;100.00
18137;BME280;9194;42.632;23.298;2024-02-14T21:17:30;92949.59;;;3.04;100.00
18137;BME280;9194;42.632;23.298;2024-02-14T21:22:32;92953.78;;;3.05;100.00
18137;BME280;9194;42.632;23.298;2024-02-14T21:27:34;92948.50;;;2.98;100.00
18137;BME280;9194;42.632;23.298;2024-02-14T21:32:36;92942.53;;;2.98;100.00
18137;BME280;9194;42.632;23.298;2024-02-14T21:37:37;92947.69;;;2.98;100.00
18137;BME280;9194;42.632;23.298;2024-02-14T21:42:39;92945.13;;;2.98;100.00
18137;BME280;9194;42.632;23.298;2024-02-14T21:47:40;92950.31;;;2.89;100.00
18137;BME280;9194;42.632;23.298;2024-02-14T21:52:41;92948.72;;;2.80;100.00
18137;BME280;9194;42.632;23.298;2024-02-14T21:57:43;92941.28;;;2.94;100.00
18137;BME280;9194;42.632;23.298;2024-02-14T22:02:44;92937.78;;;2.86;100.00
18137;BME280;9194;42.632;23.298;2024-02-14T22:07:46;92956.13;;;2.83;100.00
18137;BME280;9194;42.632;23.298;2024-02-14T22:12:48;92944.53;;;2.87;100.00
18137;BME280;9194;42.632;23.298;2024-02-14T22:17:49;92950.91;;;2.92;98.73
18137;BME280;9194;42.632;23.298;2024-02-14T22:22:51;92948.97;;;3.02;97.96
18137;BME280;9194;42.632;23.298;2024-02-14T22:27:52;92958.81;;;2.90;97.81
18137;BME280;9194;42.632;23.298;2024-02-14T22:32:54;92953.78;;;3.05;98.04
18137;BME280;9194;42.632;23.298;2024-02-14T22:37:55;92939.16;;;2.97;98.52
18137;BME280;9194;42.632;23.298;2024-02-14T22:42:56;92940.19;;;2.88;97.87
18137;BME280;9194;42.632;23.298;2024-02-14T22:47:57;92939.16;;;2.97;97.75
18137;BME280;9194;42.632;23.298;2024-02-14T22:52:58;92941.63;;;2.91;97.86
18137;BME280;9194;42.632;23.298;2024-02-14T22:58:00;92940.03;;;2.89;100.00
18137;BME280;9194;42.632;23.298;2024-02-14T23:03:01;92934.44;;;2.78;99.40
18137;BME280;9194;42.632;23.298;2024-02-14T23:08:06;92941.81;;;2.81;99.73
18137;BME280;9194;42.632;23.298;2024-02-14T23:13:08;92942.63;;;2.81;99.63
18137;BME280;9194;42.632;23.298;2024-02-14T23:18:09;92945.19;;;2.81;99.54
18137;BME280;9194;42.632;23.298;2024-02-14T23:23:11;92937.81;;;2.78;99.09
18137;BME280;9194;42.632;23.298;2024-02-14T23:28:12;92951.16;;;2.74;99.49
18137;BME280;9194;42.632;23.298;2024-02-14T23:33:14;92942.16;;;2.78;100.00
18137;BME280;9194;42.632;23.298;2024-02-14T23:38:15;92942.47;;;2.75;100.00
18137;BME280;9194;42.632;23.298;2024-02-14T23:43:16;92943.81;;;2.63;99.21
18137;BME280;9194;42.632;23.298;2024-02-14T23:48:19;92939.59;;;2.70;100.00
18137;BME280;9194;42.632;23.298;2024-02-14T23:53:20;92943.00;;;2.62;100.00
18137;BME280;9194;42.632;23.298;2024-02-14T23:58:21;92938.81;;;2.69;99.31
